CMA CGM Balzac — DIHN — position and weather

sailwx.info

Track history (hours):
 
Tides and Currents Weather Stations Pressure Air Temp Water Temp Dewpoint Dewpoint Depression Visibility Wind Speed Wind Dir Waves Ship Positions

CMA CGM Balzac

Last reported at 2014-Nov-21 06:00 UTC. Time now 2014-Nov-21 15:58 UTC.
Position N 42°06' W 009°48'.

Length 300.3 m; beam 40.3 m; draft 14 m.

Type: Ship (hazmat cat D). MMSI: 211378810.

Wind from 180 at 11 knots

Barometer 1012.0 mb
Air temperature 17.0 ° C
Visibility: greater than 5.4 NM
Water temperature 18.0 ° C

Date/timePositionNaut miles runAvg speedWind from/ knotsBaromVisibWave heightAir tempDewpointWater temp
2014-Nov-21 06:00N 42°06' W 009°48'22014.8 180 / 111012.0 5.4 17.0 18.0
2014-Nov-20 15:09N 38°26' W 009°47'915.4
2014-Nov-20 14:33N 38°18' W 009°44'1515.4
2014-Nov-20 13:33N 38°03' W 009°39'1515.2
2014-Nov-20 12:33N 37°48' W 009°35'1515.2
2014-Nov-20 11:33N 37°33' W 009°31'1815.0
2014-Nov-20 10:20N 37°15' W 009°26'3913.3
2014-Nov-20 07:26N 36°43' W 008°60'1213.3
2014-Nov-20 06:33N 36°39' W 008°46'1414.2
2014-Nov-20 05:33N 36°35' W 008°29'1414.4
2014-Nov-20 04:34N 36°30' W 008°12'1414.4
2014-Nov-20 03:34N 36°26' W 007°55'1614.4
2014-Nov-20 02:29N 36°20' W 007°37'10214.8
2014-Nov-19 19:33N 35°58' W 005°34'5 0.4
2014-Nov-19 07:17N 35°53' W 005°35'9 5.3
2014-Nov-19 05:33N 35°59' W 005°27'31815.9
2014-Nov-18 09:32N 36°58' E 001°01'4 8.2
2014-Nov-18 09:00N 37°00' E 001°06'5317.7 220 / 131015.010.8 17.013.220.0
2014-Nov-18 06:00N 37°06' E 002°12'19216.0 240 / 151013.010.8 17.0 20.0
2014-Nov-17 18:00N 37°24' E 006°12'26515.7 270 / 251011.010.8 19.0 21.0
2014-Nov-17 01:08N 37°10' E 011°44'1016.1
2014-Nov-17 00:32N 37°05' E 011°54'8816.3
2014-Nov-16 19:06N 36°16' E 013°27'916.3
2014-Nov-16 18:32N 36°11' E 013°36'1222.4
2014-Nov-16 18:00N 36°00' E 013°42'1316.8 320 / 171014.010.8 20.0 23.0
2014-Nov-16 17:11N 35°59' E 013°59'1016.2
2014-Nov-16 16:34N 35°54' E 014°09'1815.7
2014-Nov-16 15:24N 35°45' E 014°29'5 5.7
2014-Nov-16 14:33N 35°49' E 014°32'0 0.1
2014-Nov-16 12:05N 35°49' E 014°32'0 0.0
2014-Nov-16 11:32N 35°49' E 014°32'0 0.0
2014-Nov-16 09:31N 35°49' E 014°32'0 0.0
2014-Nov-16 04:14N 35°49' E 014°32'0 0.0
2014-Nov-16 03:29N 35°49' E 014°32'0 0.0
2014-Nov-16 02:31N 35°49' E 014°32'0 0.0
2014-Nov-16 00:06N 35°49' E 014°32'0 0.0
2014-Nov-15 23:33N 35°49' E 014°32'4 3.5
2014-Nov-15 22:33N 35°47' E 014°36'4 4.1
2014-Nov-15 21:32N 35°47' E 014°41'1111.0
2014-Nov-15 20:33N 35°43' E 014°53'1111.2
2014-Nov-15 19:33N 35°41' E 015°06'1211.6
2014-Nov-15 18:33N 35°38' E 015°20'1119.7
2014-Nov-15 18:00N 35°30' E 015°30'14211.8 210 / 171014.010.8 21.0 22.0
2014-Nov-15 06:00N 34°54' E 018°18'9712.1 350 / 121015.010.8 19.0 22.0
2014-Nov-14 22:00N 34°30' E 020°12'5313.2 310 / 201015.010.8 21.013.823.0
2014-Nov-14 18:00N 34°12' E 021°12'45811.7 300 / 241013.010.8 19.0 22.0
2014-Nov-13 03:00N 32°12' E 030°00'917.6 110 / 121013.010.8 20.0 24.0
2014-Nov-13 02:29N 32°11' E 030°11'1312.7
2014-Nov-13 01:27N 32°08' E 030°26'6612.4
2014-Nov-12 20:07N 31°50' E 031°41'2012.4
2014-Nov-12 18:31N 31°42' E 032°02'  
Track history (hours):
 
Tides and Currents Weather Stations Pressure Air Temp Water Temp Dewpoint Dewpoint Depression Visibility Wind Speed Wind Dir Waves Ship Positions

CMA CGM Balzac

Last reported at 2014-Nov-21 06:00 UTC. Time now 2014-Nov-21 15:58 UTC.
Position N 42°06' W 009°48'.

Length 300.3 m; beam 40.3 m; draft 14 m.

Type: Ship (hazmat cat D). MMSI: 211378810.

Wind from 180 at 11 knots

Barometer 1012.0 mb
Air temperature 17.0 ° C
Visibility: greater than 5.4 NM
Water temperature 18.0 ° C

Date/timePositionNaut miles runAvg speedWind from/ knotsBaromVisibWave heightAir tempDewpointWater temp
2014-Nov-21 06:00N 42°06' W 009°48'22014.8 180 / 111012.0 5.4 17.0 18.0
2014-Nov-20 15:09N 38°26' W 009°47'915.4
2014-Nov-20 14:33N 38°18' W 009°44'1515.4
2014-Nov-20 13:33N 38°03' W 009°39'1515.2
2014-Nov-20 12:33N 37°48' W 009°35'1515.2
2014-Nov-20 11:33N 37°33' W 009°31'1815.0
2014-Nov-20 10:20N 37°15' W 009°26'3913.3
2014-Nov-20 07:26N 36°43' W 008°60'1213.3
2014-Nov-20 06:33N 36°39' W 008°46'1414.2
2014-Nov-20 05:33N 36°35' W 008°29'1414.4
2014-Nov-20 04:34N 36°30' W 008°12'1414.4
2014-Nov-20 03:34N 36°26' W 007°55'1614.4
2014-Nov-20 02:29N 36°20' W 007°37'10214.8
2014-Nov-19 19:33N 35°58' W 005°34'5 0.4
2014-Nov-19 07:17N 35°53' W 005°35'9 5.3
2014-Nov-19 05:33N 35°59' W 005°27'31815.9
2014-Nov-18 09:32N 36°58' E 001°01'4 8.2
2014-Nov-18 09:00N 37°00' E 001°06'5317.7 220 / 131015.010.8 17.013.220.0
2014-Nov-18 06:00N 37°06' E 002°12'19216.0 240 / 151013.010.8 17.0 20.0
2014-Nov-17 18:00N 37°24' E 006°12'26515.7 270 / 251011.010.8 19.0 21.0
2014-Nov-17 01:08N 37°10' E 011°44'1016.1
2014-Nov-17 00:32N 37°05' E 011°54'8816.3
2014-Nov-16 19:06N 36°16' E 013°27'916.3
2014-Nov-16 18:32N 36°11' E 013°36'1222.4
2014-Nov-16 18:00N 36°00' E 013°42'1316.8 320 / 171014.010.8 20.0 23.0
2014-Nov-16 17:11N 35°59' E 013°59'1016.2
2014-Nov-16 16:34N 35°54' E 014°09'1815.7
2014-Nov-16 15:24N 35°45' E 014°29'5 5.7
2014-Nov-16 14:33N 35°49' E 014°32'0 0.1
2014-Nov-16 12:05N 35°49' E 014°32'0 0.0
2014-Nov-16 11:32N 35°49' E 014°32'0 0.0
2014-Nov-16 09:31N 35°49' E 014°32'0 0.0
2014-Nov-16 04:14N 35°49' E 014°32'0 0.0
2014-Nov-16 03:29N 35°49' E 014°32'0 0.0
2014-Nov-16 02:31N 35°49' E 014°32'0 0.0
2014-Nov-16 00:06N 35°49' E 014°32'0 0.0
2014-Nov-15 23:33N 35°49' E 014°32'4 3.5
2014-Nov-15 22:33N 35°47' E 014°36'4 4.1
2014-Nov-15 21:32N 35°47' E 014°41'1111.0
2014-Nov-15 20:33N 35°43' E 014°53'1111.2
2014-Nov-15 19:33N 35°41' E 015°06'1211.6
2014-Nov-15 18:33N 35°38' E 015°20'1119.7
2014-Nov-15 18:00N 35°30' E 015°30'14211.8 210 / 171014.010.8 21.0 22.0
2014-Nov-15 06:00N 34°54' E 018°18'9712.1 350 / 121015.010.8 19.0 22.0
2014-Nov-14 22:00N 34°30' E 020°12'5313.2 310 / 201015.010.8 21.013.823.0
2014-Nov-14 18:00N 34°12' E 021°12'45811.7 300 / 241013.010.8 19.0 22.0
2014-Nov-13 03:00N 32°12' E 030°00'917.6 110 / 121013.010.8 20.0 24.0
2014-Nov-13 02:29N 32°11' E 030°11'1312.7
2014-Nov-13 01:27N 32°08' E 030°26'6612.4
2014-Nov-12 20:07N 31°50' E 031°41'2012.4
2014-Nov-12 18:31N 31°42' E 032°02'  

Dump ship's entire track history